createdAt,value
2023-03-13T00:01:14.805Z,2.78
2023-03-13T00:03:43.748Z,1.42
2023-03-13T00:06:12.328Z,1.92
2023-03-13T00:08:40.928Z,2.33
2023-03-13T00:11:12.392Z,1.73
2023-03-13T00:13:43.100Z,1.05
2023-03-13T00:16:13.796Z,0.50
2023-03-13T00:18:47.130Z,0.98
2023-03-13T00:21:15.811Z,1.55
2023-03-13T00:23:44.080Z,0.80
2023-03-13T00:26:14.843Z,0.15
2023-03-13T00:28:46.092Z,0.35
2023-03-13T00:31:16.362Z,0.98
2023-03-13T00:33:47.291Z,0.30
2023-03-13T00:36:19.190Z,0.75
2023-03-13T00:38:47.748Z,1.50
2023-03-13T00:41:17.892Z,1.50
2023-03-13T00:43:48.498Z,0.45
2023-03-13T00:46:18.682Z,0.45
2023-03-13T00:48:48.021Z,1.58
2023-03-13T00:51:17.844Z,0.15
2023-03-13T00:53:47.884Z,1.05
2023-03-13T00:56:18.324Z,2.10
2023-03-13T00:58:49.862Z,2.45
2023-03-13T01:01:20.285Z,0.55
2023-03-13T01:03:51.147Z,0.50
2023-03-13T01:06:22.064Z,0.68
2023-03-13T01:08:50.958Z,1.67
2023-03-13T01:11:20.881Z,1.92
2023-03-13T01:13:51.456Z,0.70
2023-03-13T01:16:22.475Z,1.85
2023-03-13T01:18:53.129Z,0.63
2023-03-13T01:21:23.213Z,2.35
2023-03-13T01:23:53.107Z,2.67
2023-03-13T01:26:23.162Z,1.55
2023-03-13T01:28:53.057Z,2.35
2023-03-13T01:31:23.635Z,3.55
2023-03-13T01:33:56.497Z,4.65
2023-03-13T01:36:25.810Z,2.58
2023-03-13T01:38:55.755Z,4.53
2023-03-13T01:41:25.793Z,4.78
2023-03-13T01:43:56.734Z,3.88
2023-03-13T01:46:29.314Z,5.93
2023-03-13T01:49:17.121Z,9.23
2023-03-13T01:52:16.237Z,11.23
2023-03-13T01:55:12.595Z,10.07
2023-03-13T01:57:46.170Z,6.65
2023-03-13T02:00:20.994Z,10.38
2023-03-13T02:02:53.330Z,7.68
2023-03-13T02:05:25.269Z,4.70
2023-03-13T02:07:59.239Z,8.73
2023-03-13T02:10:29.642Z,10.48
2023-03-13T02:12:59.261Z,9.43
2023-03-13T02:15:30.372Z,14.10
2023-03-13T02:18:00.322Z,9.68
2023-03-13T02:20:28.914Z,13.68
2023-03-13T02:23:03.215Z,12.55
2023-03-13T02:25:40.711Z,13.73
2023-03-13T02:28:13.453Z,16.30
2023-03-13T02:30:45.322Z,20.67
2023-03-13T02:33:14.899Z,12.95
2023-03-13T02:35:44.591Z,21.73
2023-03-13T02:38:19.658Z,19.13
2023-03-13T02:40:51.349Z,17.13
2023-03-13T02:43:25.474Z,21.42
2023-03-13T02:46:09.468Z,14.52
2023-03-13T02:48:44.331Z,21.08
2023-03-13T02:51:17.955Z,19.48
2023-03-13T02:53:50.167Z,21.92
2023-03-13T02:56:23.022Z,19.17
2023-03-13T02:58:51.662Z,12.95
2023-03-13T03:01:23.793Z,24.25
2023-03-13T03:03:53.261Z,16.95
2023-03-13T03:08:51.186Z,15.68
2023-03-13T03:11:21.381Z,14.27
2023-03-13T03:13:55.676Z,12.15
2023-03-13T03:16:24.713Z,3.90
2023-03-13T03:21:21.448Z,2.85
2023-03-13T03:23:50.179Z,1.85
2023-03-13T03:26:18.676Z,5.95
2023-03-13T03:28:48.953Z,0.52
2023-03-13T03:31:19.207Z,1.00
2023-03-13T03:33:50.194Z,2.25
2023-03-13T03:36:22.443Z,0.93
2023-03-13T03:38:51.607Z,3.53
2023-03-13T03:41:24.451Z,2.53
2023-03-13T03:46:25.986Z,1.85
2023-03-13T03:48:55.026Z,0.90
2023-03-13T03:51:23.771Z,0.30
2023-03-13T03:53:52.279Z,1.85
2023-03-13T03:58:55.354Z,2.92
2023-03-13T04:02:02.349Z,0.63
2023-03-13T04:04:32.080Z,1.42
2023-03-13T04:07:05.793Z,3.88
2023-03-13T04:09:35.870Z,2.17
2023-03-13T04:12:06.577Z,1.20
2023-03-13T04:14:40.577Z,2.63
2023-03-13T04:17:11.926Z,2.35
2023-03-13T04:19:40.970Z,4.50
2023-03-13T04:22:09.578Z,4.57
2023-03-13T04:24:40.266Z,10.05
2023-03-13T04:27:09.920Z,3.58
2023-03-13T04:29:40.769Z,6.35
2023-03-13T04:32:35.187Z,8.43
2023-03-13T04:35:22.131Z,6.03
2023-03-13T04:38:17.299Z,2.22
2023-03-13T04:40:59.293Z,4.18
2023-03-13T04:43:50.643Z,4.05
2023-03-13T04:46:50.162Z,2.00
2023-03-13T04:49:33.524Z,2.88
2023-03-13T04:52:18.680Z,1.77
2023-03-13T04:54:51.229Z,2.13
2023-03-13T04:57:42.203Z,2.35
2023-03-13T05:00:23.214Z,1.27
2023-03-13T05:03:12.763Z,0.65
2023-03-13T05:06:10.219Z,1.65
2023-03-13T05:08:58.797Z,4.53
2023-03-13T05:11:50.739Z,1.52
2023-03-13T05:14:41.891Z,3.40
2023-03-13T05:17:28.770Z,6.93
2023-03-13T05:22:58.969Z,2.08
2023-03-13T05:25:47.537Z,2.67
2023-03-13T05:28:16.260Z,8.23
2023-03-13T05:30:51.027Z,6.88
2023-03-13T05:33:36.208Z,10.60
2023-03-13T05:36:32.125Z,9.38
2023-03-13T05:39:20.988Z,13.38
2023-03-13T05:44:44.227Z,27.95
2023-03-13T05:47:44.739Z,16.50
2023-03-13T05:50:36.178Z,16.20
2023-03-13T05:53:37.718Z,18.85
2023-03-13T05:56:20.320Z,17.83
2023-03-13T05:59:15.412Z,18.77
2023-03-13T06:01:59.789Z,13.27
2023-03-13T06:04:34.106Z,19.95
2023-03-13T06:07:03.301Z,16.30
2023-03-13T06:09:33.056Z,16.70
2023-03-13T06:12:01.497Z,12.15
2023-03-13T06:14:30.796Z,15.70
2023-03-13T06:17:25.618Z,11.25
2023-03-13T06:19:54.017Z,10.00
2023-03-13T06:22:22.323Z,12.18
2023-03-13T06:27:20.383Z,11.98
2023-03-13T06:32:17.378Z,6.57
2023-03-13T06:34:45.870Z,11.38
2023-03-13T06:37:14.581Z,8.02
2023-03-13T06:39:42.956Z,7.75
2023-03-13T06:42:12.880Z,6.93
2023-03-13T06:44:41.729Z,6.50
2023-03-13T06:47:10.129Z,9.00
2023-03-13T06:52:07.249Z,11.85
2023-03-13T06:54:35.720Z,12.50
2023-03-13T06:59:33.756Z,11.70
2023-03-13T07:02:02.418Z,16.27
2023-03-13T07:04:30.850Z,19.67
2023-03-13T07:11:55.630Z,31.17
2023-03-13T07:14:23.917Z,28.52
2023-03-13T07:16:53.978Z,36.78
2023-03-13T07:19:22.775Z,25.45
2023-03-13T07:21:52.591Z,22.83
2023-03-13T07:24:21.282Z,25.95
2023-03-13T07:27:04.661Z,33.88
2023-03-13T07:29:35.687Z,34.22
2023-03-13T07:32:06.301Z,37.38
2023-03-13T07:34:34.815Z,32.90
2023-03-13T07:39:31.168Z,25.98
2023-03-13T07:41:59.952Z,38.22
2023-03-13T07:44:28.378Z,32.65
2023-03-13T07:46:57.429Z,26.02
2023-03-13T07:49:28.514Z,27.85
2023-03-13T07:51:57.813Z,29.48
2023-03-13T07:54:26.816Z,35.40
2023-03-13T07:56:55.202Z,33.17
2023-03-13T07:59:23.738Z,23.67
2023-03-13T08:01:52.106Z,26.77
2023-03-13T08:04:20.463Z,26.58
2023-03-13T08:06:51.798Z,20.73
2023-03-13T08:09:20.401Z,29.50
2023-03-13T08:11:49.107Z,31.65
2023-03-13T08:14:17.410Z,26.00
2023-03-13T08:21:42.842Z,24.20
2023-03-13T08:24:13.659Z,16.83
2023-03-13T08:26:43.327Z,18.67
2023-03-13T08:29:13.283Z,21.50
2023-03-13T08:31:45.600Z,16.77
2023-03-13T08:34:14.943Z,16.95
2023-03-13T08:36:44.040Z,18.27
2023-03-13T08:39:15.544Z,16.05
2023-03-13T08:41:44.194Z,10.93
2023-03-13T08:44:15.144Z,21.60
2023-03-13T08:46:44.123Z,18.70
2023-03-13T08:49:13.776Z,18.98
2023-03-13T08:51:42.137Z,11.82
2023-03-13T08:54:10.623Z,12.10
2023-03-13T08:56:41.094Z,13.75
2023-03-13T08:59:09.524Z,12.02
2023-03-13T09:04:07.646Z,11.35
2023-03-13T09:06:37.744Z,10.45
2023-03-13T09:09:07.732Z,17.05
2023-03-13T09:11:37.570Z,16.65
2023-03-13T09:14:08.731Z,6.07
2023-03-13T09:16:37.576Z,2.20
2023-03-13T09:19:06.162Z,4.50
2023-03-13T09:24:04.050Z,4.88
2023-03-13T09:26:32.684Z,3.97
2023-03-13T09:29:01.298Z,6.15
2023-03-13T09:31:32.513Z,4.65
2023-03-13T09:34:01.987Z,6.97
2023-03-13T09:36:30.633Z,2.65
2023-03-13T09:39:01.101Z,3.38
2023-03-13T09:41:36.049Z,4.50
2023-03-13T09:44:14.483Z,1.75
2023-03-13T09:46:49.408Z,1.20
2023-03-13T09:49:29.774Z,4.05
2023-03-13T09:52:06.423Z,2.70
2023-03-13T09:54:40.938Z,2.42
2023-03-13T09:57:17.708Z,1.85
2023-03-13T09:59:53.715Z,0.70
2023-03-13T10:02:29.862Z,3.67
2023-03-13T10:05:06.527Z,0.68
2023-03-13T10:07:34.854Z,1.85
2023-03-13T10:10:06.714Z,0.20
2023-03-13T10:12:42.788Z,0.68
2023-03-13T10:15:29.525Z,3.20
2023-03-13T10:18:03.859Z,0.65
2023-03-13T10:20:36.232Z,2.92
2023-03-13T10:23:09.053Z,2.47
2023-03-13T10:25:40.075Z,0.55
2023-03-13T10:28:13.240Z,1.23
2023-03-13T10:30:47.649Z,0.05
2023-03-13T10:33:27.344Z,0.65
2023-03-13T10:36:16.813Z,0.70
2023-03-13T10:38:51.856Z,0.93
2023-03-13T10:41:26.852Z,0.75
2023-03-13T10:43:57.062Z,0.40
2023-03-13T10:46:27.117Z,3.63
2023-03-13T10:48:58.410Z,1.48
2023-03-13T10:51:35.903Z,0.43
2023-03-13T10:54:15.631Z,3.23
2023-03-13T10:56:44.177Z,1.00
2023-03-13T11:01:53.225Z,3.70
2023-03-13T11:04:31.860Z,2.47
2023-03-13T11:07:04.517Z,2.92
2023-03-13T11:09:33.486Z,3.50
2023-03-13T11:12:05.999Z,5.97
2023-03-13T11:14:36.075Z,1.77
2023-03-13T11:17:11.048Z,2.40
2023-03-13T11:20:09.634Z,2.92
2023-03-13T11:22:48.961Z,5.28
2023-03-13T11:25:33.598Z,7.18
2023-03-13T11:28:29.417Z,5.18
2023-03-13T11:31:15.028Z,9.10
2023-03-13T11:33:53.661Z,5.90
2023-03-13T11:36:28.869Z,10.88
2023-03-13T11:39:08.561Z,4.05
2023-03-13T11:41:49.749Z,7.63
2023-03-13T11:44:30.840Z,7.63
2023-03-13T11:47:25.070Z,6.65
2023-03-13T11:50:05.005Z,3.72
2023-03-13T11:52:48.081Z,11.93
2023-03-13T11:55:31.508Z,4.93
2023-03-13T11:58:19.291Z,7.05
2023-03-13T12:00:51.940Z,11.27
2023-03-13T12:03:25.169Z,4.82
2023-03-13T12:05:56.828Z,9.63
2023-03-13T12:08:31.377Z,10.43
2023-03-13T12:11:11.366Z,6.57
2023-03-13T12:13:42.809Z,3.97
2023-03-13T12:16:21.773Z,8.00
2023-03-13T12:18:54.127Z,7.70
2023-03-13T12:21:29.761Z,5.95
2023-03-13T12:24:11.760Z,6.60
2023-03-13T12:26:45.967Z,9.25
2023-03-13T12:29:18.745Z,7.45
2023-03-13T12:31:55.098Z,3.17
2023-03-13T12:34:28.989Z,4.18
2023-03-13T12:37:06.951Z,1.70
2023-03-13T12:39:44.318Z,3.45
2023-03-13T12:42:31.495Z,4.20
2023-03-13T12:45:00.996Z,2.25
2023-03-13T12:47:33.885Z,2.05
2023-03-13T12:50:21.203Z,3.20
2023-03-13T12:53:07.841Z,0.90
2023-03-13T12:55:56.422Z,1.55
2023-03-13T12:58:31.361Z,1.73
2023-03-13T13:01:05.361Z,1.70
2023-03-13T13:03:38.182Z,1.42
2023-03-13T13:06:09.740Z,2.05
2023-03-13T13:08:41.983Z,1.52
2023-03-13T13:11:48.617Z,5.30
2023-03-13T13:15:07.655Z,2.20
2023-03-13T13:17:51.110Z,3.92
2023-03-13T13:20:32.272Z,2.58
2023-03-13T13:23:26.982Z,1.00
2023-03-13T13:25:57.323Z,3.55
2023-03-13T13:28:35.176Z,2.78
2023-03-13T13:31:23.945Z,1.52
2023-03-13T13:33:52.803Z,1.30
2023-03-13T13:36:32.289Z,2.50
2023-03-13T13:39:00.834Z,2.28
2023-03-13T13:46:54.908Z,2.35
2023-03-13T13:49:24.564Z,2.95
2023-03-13T13:52:32.426Z,1.75
2023-03-13T13:55:01.087Z,2.08
2023-03-13T13:57:33.834Z,3.78
2023-03-13T14:00:18.094Z,2.67
2023-03-13T14:02:51.797Z,3.92
2023-03-13T14:05:23.344Z,2.17
2023-03-13T14:07:58.633Z,9.20
2023-03-13T14:10:36.757Z,5.63
2023-03-13T14:13:13.530Z,4.88
2023-03-13T14:15:48.411Z,3.85
2023-03-13T14:18:24.182Z,2.05
2023-03-13T14:21:01.481Z,2.22
2023-03-13T14:23:40.117Z,3.60
2023-03-13T14:26:14.936Z,3.17
2023-03-13T14:28:46.504Z,2.78
2023-03-13T14:31:25.653Z,2.53
2023-03-13T14:33:54.240Z,5.53
2023-03-13T14:36:22.601Z,3.22
2023-03-13T14:41:26.811Z,4.03
2023-03-13T14:43:56.734Z,4.95
2023-03-13T14:46:32.235Z,4.13
2023-03-13T14:49:09.760Z,4.05
2023-03-13T14:51:41.154Z,1.90
2023-03-13T14:54:26.772Z,2.63
2023-03-13T14:57:06.345Z,2.00
2023-03-13T14:59:34.783Z,3.65
2023-03-13T15:02:15.608Z,4.28
2023-03-13T15:04:56.201Z,3.63
2023-03-13T15:07:25.241Z,3.72
2023-03-13T15:09:54.245Z,4.55
2023-03-13T15:12:24.707Z,2.10
2023-03-13T15:14:54.125Z,2.88
2023-03-13T15:17:26.086Z,5.57
2023-03-13T15:19:55.757Z,4.93
2023-03-13T15:22:29.358Z,3.15
2023-03-13T15:25:07.153Z,3.22
2023-03-13T15:27:36.650Z,4.13
2023-03-13T15:30:06.009Z,2.60
2023-03-13T15:32:38.518Z,2.70
2023-03-13T15:35:29.809Z,2.40
2023-03-13T15:37:59.553Z,1.88
2023-03-13T15:40:28.805Z,2.53
2023-03-13T15:42:57.444Z,1.92
2023-03-13T15:45:26.167Z,1.88
2023-03-13T15:47:56.132Z,1.35
2023-03-13T15:50:29.808Z,2.42
2023-03-13T15:53:00.831Z,3.70
2023-03-13T15:55:30.875Z,3.22
2023-03-13T15:57:59.351Z,4.05
2023-03-13T16:02:57.603Z,7.75
2023-03-13T16:05:25.920Z,2.35
2023-03-13T16:07:54.701Z,2.53
2023-03-13T16:10:25.876Z,6.53
2023-03-13T16:12:54.321Z,3.05
2023-03-13T16:22:53.457Z,4.03
2023-03-13T16:25:22.477Z,4.38
2023-03-13T16:27:51.300Z,2.50
2023-03-13T16:30:23.604Z,5.15
2023-03-13T16:32:52.542Z,4.75
2023-03-13T16:35:22.897Z,5.25
2023-03-13T16:37:52.192Z,5.28
2023-03-13T16:40:22.677Z,6.13
2023-03-13T16:42:51.011Z,2.72
2023-03-13T16:45:19.902Z,3.50
2023-03-13T16:47:48.722Z,5.80
2023-03-13T16:50:26.033Z,3.35
2023-03-13T16:52:56.736Z,4.37
2023-03-13T16:55:28.748Z,4.10
2023-03-13T16:57:58.017Z,6.30
2023-03-13T17:00:29.026Z,10.93
2023-03-13T17:02:58.310Z,6.82
2023-03-13T17:05:29.089Z,7.97
2023-03-13T17:07:57.772Z,7.95
2023-03-13T17:10:28.584Z,9.13
2023-03-13T17:12:57.788Z,12.43
2023-03-13T17:15:27.766Z,5.80
2023-03-13T17:17:57.622Z,12.98
2023-03-13T17:20:29.659Z,5.15
2023-03-13T17:22:58.717Z,5.85
2023-03-13T17:25:27.202Z,5.25
2023-03-13T17:32:53.462Z,15.23
2023-03-13T17:35:22.401Z,22.75
2023-03-13T17:37:52.239Z,13.13
2023-03-13T17:40:22.508Z,14.98
2023-03-13T17:42:51.206Z,8.55
2023-03-13T17:45:20.566Z,7.88
2023-03-13T17:47:50.661Z,8.88
2023-03-13T17:50:21.048Z,10.88
2023-03-13T17:52:49.628Z,7.43
2023-03-13T17:55:19.804Z,6.47
2023-03-13T17:57:48.974Z,5.90
2023-03-13T18:00:29.152Z,6.38
2023-03-13T18:02:58.687Z,7.20
2023-03-13T18:05:27.302Z,5.00
2023-03-13T18:07:57.067Z,14.18
2023-03-13T18:10:28.988Z,5.03
2023-03-13T18:12:57.669Z,9.90
2023-03-13T18:15:27.682Z,4.13
2023-03-13T18:17:56.140Z,8.18
2023-03-13T18:22:59.562Z,4.85
2023-03-13T18:25:30.957Z,5.30
2023-03-13T18:27:59.595Z,6.55
2023-03-13T18:30:28.867Z,6.10
2023-03-13T18:32:57.419Z,4.20
2023-03-13T18:35:25.921Z,10.00
2023-03-13T18:42:53.792Z,6.38
2023-03-13T18:45:24.765Z,7.55
2023-03-13T18:47:53.890Z,8.48
2023-03-13T18:50:26.543Z,8.25
2023-03-13T18:52:56.133Z,5.05
2023-03-13T18:55:25.993Z,7.05
2023-03-13T18:57:56.762Z,6.68
2023-03-13T19:00:27.089Z,9.77
2023-03-13T19:02:55.589Z,11.38
2023-03-13T19:05:24.659Z,10.05
2023-03-13T19:07:53.199Z,7.70
2023-03-13T19:10:28.673Z,8.50
2023-03-13T19:13:06.405Z,10.55
2023-03-13T19:15:42.067Z,12.13
2023-03-13T19:18:17.179Z,14.85
2023-03-13T19:20:46.619Z,19.98
2023-03-13T19:23:15.036Z,23.55
2023-03-13T19:25:48.774Z,24.55
2023-03-13T19:28:24.455Z,12.05
2023-03-13T19:30:59.702Z,16.52
2023-03-13T19:33:36.151Z,14.05
2023-03-13T19:36:18.692Z,15.18
2023-03-13T19:38:48.164Z,6.90
2023-03-13T19:41:23.633Z,10.00
2023-03-13T19:43:54.971Z,7.72
2023-03-13T19:46:25.905Z,7.25
2023-03-13T19:49:02.839Z,12.73
2023-03-13T19:51:33.024Z,21.88
2023-03-13T19:54:04.826Z,8.13
2023-03-13T19:56:35.024Z,10.35
2023-03-13T19:59:13.383Z,9.35
2023-03-13T20:01:47.745Z,7.55
2023-03-13T20:04:21.666Z,6.88
2023-03-13T20:06:55.834Z,11.52
2023-03-13T20:09:27.802Z,11.55
2023-03-13T20:11:57.854Z,9.63
2023-03-13T20:17:00.415Z,8.05
2023-03-13T20:22:06.816Z,16.20
2023-03-13T20:24:51.879Z,15.50
2023-03-13T20:27:28.922Z,14.25
2023-03-13T20:30:02.337Z,11.73
2023-03-13T20:32:37.793Z,10.18
2023-03-13T20:35:15.860Z,11.13
2023-03-13T20:37:45.166Z,12.15
2023-03-13T20:40:14.823Z,9.35
2023-03-13T20:42:43.245Z,15.13
2023-03-13T20:45:13.367Z,14.95
2023-03-13T20:47:41.913Z,19.13
2023-03-13T20:50:12.947Z,5.90
2023-03-13T20:52:41.793Z,10.88
2023-03-13T20:55:11.605Z,13.52
2023-03-13T20:57:40.346Z,14.70
2023-03-13T21:00:12.380Z,10.30
2023-03-13T21:02:42.906Z,7.43
2023-03-13T21:05:12.429Z,8.40
2023-03-13T21:07:41.728Z,9.10
2023-03-13T21:10:12.013Z,10.13
2023-03-13T21:12:42.655Z,6.60
2023-03-13T21:15:13.762Z,9.43
2023-03-13T21:17:45.008Z,15.60
2023-03-13T21:20:14.180Z,14.38
2023-03-13T21:22:44.581Z,9.52
2023-03-13T21:25:14.131Z,10.60
2023-03-13T21:27:44.221Z,7.97
2023-03-13T21:30:16.036Z,9.50
2023-03-13T21:32:47.037Z,14.18
2023-03-13T21:35:17.735Z,12.77
2023-03-13T21:37:46.772Z,13.18
2023-03-13T21:40:15.470Z,6.72
2023-03-13T21:42:43.840Z,8.80
2023-03-13T21:47:43.237Z,6.32
2023-03-13T21:50:14.893Z,6.70
2023-03-13T21:52:45.691Z,8.45
2023-03-13T21:55:14.799Z,8.98
2023-03-13T21:57:46.762Z,11.02
2023-03-13T22:00:16.830Z,8.05
2023-03-13T22:02:45.299Z,7.65
2023-03-13T22:05:15.766Z,9.25
2023-03-13T22:07:45.683Z,6.00
2023-03-13T22:10:14.279Z,8.15
2023-03-13T22:12:42.815Z,9.18
2023-03-13T22:15:14.127Z,9.98
2023-03-13T22:17:44.027Z,6.05
2023-03-13T22:20:15.476Z,9.07
2023-03-13T22:22:44.154Z,12.95
2023-03-13T22:25:13.796Z,8.65
2023-03-13T22:27:42.376Z,7.28
2023-03-13T22:30:12.963Z,8.70
2023-03-13T22:32:41.884Z,12.60
2023-03-13T22:35:11.220Z,9.27
2023-03-13T22:37:41.464Z,8.05
2023-03-13T22:40:13.322Z,8.82
2023-03-13T22:42:42.128Z,6.57
2023-03-13T22:45:11.436Z,5.88
2023-03-13T22:47:40.362Z,5.97
2023-03-13T22:50:11.155Z,5.22
2023-03-13T22:52:41.035Z,6.35
2023-03-13T22:55:11.210Z,5.80
2023-03-13T22:57:40.094Z,6.28
2023-03-13T23:00:10.879Z,5.65
2023-03-13T23:02:39.287Z,8.00
2023-03-13T23:05:08.436Z,5.85
2023-03-13T23:07:40.567Z,5.30
2023-03-13T23:10:13.053Z,5.45
2023-03-13T23:12:42.310Z,4.55
2023-03-13T23:15:12.804Z,4.28
2023-03-13T23:17:41.887Z,3.85
2023-03-13T23:20:13.355Z,3.92
2023-03-13T23:22:42.880Z,5.57
2023-03-13T23:25:14.469Z,4.22
2023-03-13T23:27:43.707Z,7.93
2023-03-13T23:30:15.371Z,2.40
2023-03-13T23:32:45.518Z,3.38
2023-03-13T23:35:16.899Z,4.60
2023-03-13T23:37:49.483Z,6.88
2023-03-13T23:40:19.779Z,6.05
2023-03-13T23:42:50.212Z,6.47
2023-03-13T23:45:20.077Z,6.20
2023-03-13T23:47:48.896Z,7.28
2023-03-13T23:50:17.654Z,4.35
2023-03-13T23:52:46.397Z,3.80
2023-03-13T23:55:15.613Z,3.72
2023-03-13T23:57:49.343Z,1.63
